sensor_id;sensor_type;location;lat;lon;timestamp;P1;P2;P0
46381;PMS5003;66809;52.974;-2.514;2024-01-30T00:01:17;33.59090909090909;29.40909090909091;
46381;PMS5003;66809;52.974;-2.514;2024-01-30T00:03:18;33.95652173913044;29.73913043478261;
46381;PMS5003;66809;52.974;-2.514;2024-01-30T00:05:18;34.0625;29.791666666666668;
46381;PMS5003;66809;52.974;-2.514;2024-01-30T00:07:17;34.26;30.0;
46381;PMS5003;66809;52.974;-2.514;2024-01-30T00:09:17;34.25;30.076923076923077;
46381;PMS5003;66809;52.974;-2.514;2024-01-30T00:11:20;34.31481481481482;30.11111111111111;
46381;PMS5003;66809;52.974;-2.514;2024-01-30T00:13:24;34.464285714285715;30.232142857142858;
46381;PMS5003;66809;52.974;-2.514;2024-01-30T00:15:17;34.39655172413793;30.189655172413794;
46381;PMS5003;66809;52.974;-2.514;2024-01-30T00:17:23;34.6;30.316666666666666;
46381;PMS5003;66809;52.974;-2.514;2024-01-30T00:19:17;35.75;31.35;
46381;PMS5003;66809;52.974;-2.514;2024-01-30T00:21:22;36.1;31.733333333333334;
46381;PMS5003;66809;52.974;-2.514;2024-01-30T00:23:18;36.166666666666664;31.766666666666666;
46381;PMS5003;66809;52.974;-2.514;2024-01-30T00:25:17;36.21666666666667;31.733333333333334;
46381;PMS5003;66809;52.974;-2.514;2024-01-30T00:27:17;36.6;31.95;
46381;PMS5003;66809;52.974;-2.514;2024-01-30T00:29:18;36.833333333333336;32.166666666666664;
46381;PMS5003;66809;52.974;-2.514;2024-01-30T00:31:24;36.95;32.13333333333333;
46381;PMS5003;66809;52.974;-2.514;2024-01-30T00:33:18;37.0;32.05;
46381;PMS5003;66809;52.974;-2.514;2024-01-30T00:35:17;36.86666666666667;31.95;
46381;PMS5003;66809;52.974;-2.514;2024-01-30T00:37:18;36.833333333333336;31.883333333333333;
46381;PMS5003;66809;52.974;-2.514;2024-01-30T00:39:17;36.483333333333334;31.583333333333332;
46381;PMS5003;66809;52.974;-2.514;2024-01-30T00:41:17;35.36666666666667;30.716666666666665;
46381;PMS5003;66809;52.974;-2.514;2024-01-30T00:43:17;34.166666666666664;29.766666666666666;
46381;PMS5003;66809;52.974;-2.514;2024-01-30T00:45:23;33.06666666666667;28.8;
46381;PMS5003;66809;52.974;-2.514;2024-01-30T00:47:18;31.666666666666668;27.566666666666666;
46381;PMS5003;66809;52.974;-2.514;2024-01-30T00:49:18;30.416666666666668;26.483333333333334;
46381;PMS5003;66809;52.974;-2.514;2024-01-30T00:51:24;29.266666666666666;25.5;
46381;PMS5003;66809;52.974;-2.514;2024-01-30T00:56:04;0.14285714285714285;0.14285714285714285;
46381;PMS5003;66809;52.974;-2.514;2024-01-30T00:57:58;0.3125;0.3125;
46381;PMS5003;66809;52.974;-2.514;2024-01-30T01:00:00;0.4444444444444444;0.3888888888888889;
46381;PMS5003;66809;52.974;-2.514;2024-01-30T01:01:59;0.45;0.4;
46381;PMS5003;66809;52.974;-2.514;2024-01-30T01:03:59;0.5;0.45454545454545453;
46381;PMS5003;66809;52.974;-2.514;2024-01-30T01:05:58;0.5416666666666666;0.5;
46381;PMS5003;66809;52.974;-2.514;2024-01-30T01:07:58;0.5769230769230769;0.5384615384615384;
46381;PMS5003;66809;52.974;-2.514;2024-01-30T01:09:58;0.6071428571428571;0.5714285714285714;
46381;PMS5003;66809;52.974;-2.514;2024-01-30T01:11:58;0.6333333333333333;0.6;
46381;PMS5003;66809;52.974;-2.514;2024-01-30T01:13:58;0.65625;0.625;
46381;PMS5003;66809;52.974;-2.514;2024-01-30T01:15:59;0.6764705882352942;0.6470588235294118;
46381;PMS5003;66809;52.974;-2.514;2024-01-30T01:18:04;0.7222222222222222;0.6944444444444444;
46381;PMS5003;66809;52.974;-2.514;2024-01-30T01:19:58;0.7368421052631579;0.7105263157894737;
46381;PMS5003;66809;52.974;-2.514;2024-01-30T01:21:58;0.725;0.7;
46381;PMS5003;66809;52.974;-2.514;2024-01-30T01:23:58;0.7142857142857143;0.6904761904761905;
46381;PMS5003;66809;52.974;-2.514;2024-01-30T01:25:58;0.7272727272727273;0.7045454545454546;
46381;PMS5003;66809;52.974;-2.514;2024-01-30T01:27:59;0.7608695652173914;0.7391304347826086;
46381;PMS5003;66809;52.974;-2.514;2024-01-30T01:29:58;0.7916666666666666;0.7708333333333334;
46381;PMS5003;66809;52.974;-2.514;2024-01-30T01:32:04;0.78;0.76;
46381;PMS5003;66809;52.974;-2.514;2024-01-30T01:34:00;0.8076923076923077;0.7884615384615384;
46381;PMS5003;66809;52.974;-2.514;2024-01-30T01:36:04;0.8518518518518519;0.8333333333333334;
46381;PMS5003;66809;52.974;-2.514;2024-01-30T01:37:58;0.8571428571428571;0.8392857142857143;
46381;PMS5003;66809;52.974;-2.514;2024-01-30T01:39:58;0.8620689655172413;0.8448275862068966;
46381;PMS5003;66809;52.974;-2.514;2024-01-30T01:41:58;0.85;0.8333333333333334;
46381;PMS5003;66809;52.974;-2.514;2024-01-30T01:43:58;0.8833333333333333;0.8666666666666667;
46381;PMS5003;66809;52.974;-2.514;2024-01-30T01:45:58;0.9333333333333333;0.9166666666666666;
46381;PMS5003;66809;52.974;-2.514;2024-01-30T01:47:58;1.0166666666666666;0.9666666666666667;
46381;PMS5003;66809;52.974;-2.514;2024-01-30T01:49:58;1.05;1.0;
46381;PMS5003;66809;52.974;-2.514;2024-01-30T01:51:57;1.0833333333333333;1.0333333333333334;
46381;PMS5003;66809;52.974;-2.514;2024-01-30T01:53:58;1.1333333333333333;1.0833333333333333;
46381;PMS5003;66809;52.974;-2.514;2024-01-30T01:55:57;1.15;1.1;
46381;PMS5003;66809;52.974;-2.514;2024-01-30T01:57:57;1.1166666666666667;1.0666666666666667;
46381;PMS5003;66809;52.974;-2.514;2024-01-30T01:59:58;1.1333333333333333;1.1;
46381;PMS5003;66809;52.974;-2.514;2024-01-30T02:02:04;1.2;1.15;
46381;PMS5003;66809;52.974;-2.514;2024-01-30T02:03:58;1.2;1.15;
46381;PMS5003;66809;52.974;-2.514;2024-01-30T02:05:58;1.1833333333333333;1.1333333333333333;
46381;PMS5003;66809;52.974;-2.514;2024-01-30T02:07:58;1.1666666666666667;1.1166666666666667;
46381;PMS5003;66809;52.974;-2.514;2024-01-30T02:09:58;1.1666666666666667;1.1166666666666667;
46381;PMS5003;66809;52.974;-2.514;2024-01-30T02:11:59;1.15;1.1;
46381;PMS5003;66809;52.974;-2.514;2024-01-30T02:14:02;1.1333333333333333;1.0833333333333333;
46381;PMS5003;66809;52.974;-2.514;2024-01-30T02:15:58;1.1333333333333333;1.0833333333333333;
46381;PMS5003;66809;52.974;-2.514;2024-01-30T02:17:58;1.1166666666666667;1.0666666666666667;
46381;PMS5003;66809;52.974;-2.514;2024-01-30T02:19:57;1.1166666666666667;1.0666666666666667;
46381;PMS5003;66809;52.974;-2.514;2024-01-30T02:21:58;1.1;1.05;
46381;PMS5003;66809;52.974;-2.514;2024-01-30T02:23:57;1.1;1.0333333333333334;
46381;PMS5003;66809;52.974;-2.514;2024-01-30T02:25:59;1.1;1.0333333333333334;
46381;PMS5003;66809;52.974;-2.514;2024-01-30T02:27:58;1.1;1.0333333333333334;
46381;PMS5003;66809;52.974;-2.514;2024-01-30T02:29:58;1.05;0.9833333333333333;
46381;PMS5003;66809;52.974;-2.514;2024-01-30T02:32:03;1.0333333333333334;0.9666666666666667;
46381;PMS5003;66809;52.974;-2.514;2024-01-30T02:33:58;1.0166666666666666;0.95;
46381;PMS5003;66809;52.974;-2.514;2024-01-30T02:35:57;1.0333333333333334;0.9333333333333333;
46381;PMS5003;66809;52.974;-2.514;2024-01-30T02:37:58;1.0333333333333334;0.9333333333333333;
46381;PMS5003;66809;52.974;-2.514;2024-01-30T02:39:58;1.05;0.95;
46381;PMS5003;66809;52.974;-2.514;2024-01-30T02:41:58;1.1166666666666667;0.9833333333333333;
46381;PMS5003;66809;52.974;-2.514;2024-01-30T02:44:01;1.1833333333333333;1.05;
46381;PMS5003;66809;52.974;-2.514;2024-01-30T02:45:59;1.1833333333333333;1.05;
46381;PMS5003;66809;52.974;-2.514;2024-01-30T02:47:58;1.1333333333333333;1.0333333333333334;
46381;PMS5003;66809;52.974;-2.514;2024-01-30T02:49:57;1.2666666666666666;1.1;
46381;PMS5003;66809;52.974;-2.514;2024-01-30T02:51:58;1.3166666666666667;1.15;
46381;PMS5003;66809;52.974;-2.514;2024-01-30T02:53:58;1.3166666666666667;1.1333333333333333;
46381;PMS5003;66809;52.974;-2.514;2024-01-30T02:55:57;1.35;1.1666666666666667;
46381;PMS5003;66809;52.974;-2.514;2024-01-30T02:57:58;1.4166666666666667;1.2;
46381;PMS5003;66809;52.974;-2.514;2024-01-30T02:59:58;1.4666666666666666;1.2;
46381;PMS5003;66809;52.974;-2.514;2024-01-30T03:01:58;1.4833333333333334;1.2;
46381;PMS5003;66809;52.974;-2.514;2024-01-30T03:03:58;1.6333333333333333;1.2666666666666666;
46381;PMS5003;66809;52.974;-2.514;2024-01-30T03:05:58;1.7;1.3333333333333333;
46381;PMS5003;66809;52.974;-2.514;2024-01-30T03:08:01;1.8;1.4166666666666667;
46381;PMS5003;66809;52.974;-2.514;2024-01-30T03:09:57;1.8666666666666667;1.4166666666666667;
46381;PMS5003;66809;52.974;-2.514;2024-01-30T03:11:58;1.9833333333333334;1.4666666666666666;
46381;PMS5003;66809;52.974;-2.514;2024-01-30T03:13:58;2.066666666666667;1.5333333333333334;
46381;PMS5003;66809;52.974;-2.514;2024-01-30T03:15:57;2.1666666666666665;1.5833333333333333;
46381;PMS5003;66809;52.974;-2.514;2024-01-30T03:17:58;2.2;1.6166666666666667;
46381;PMS5003;66809;52.974;-2.514;2024-01-30T03:19:58;2.283333333333333;1.65;
46381;PMS5003;66809;52.974;-2.514;2024-01-30T03:21:58;2.3833333333333333;1.7166666666666666;
46381;PMS5003;66809;52.974;-2.514;2024-01-30T03:23:57;2.55;1.8166666666666667;
46381;PMS5003;66809;52.974;-2.514;2024-01-30T03:25:58;2.6666666666666665;1.8833333333333333;
46381;PMS5003;66809;52.974;-2.514;2024-01-30T03:27:58;2.7666666666666666;1.8833333333333333;
46381;PMS5003;66809;52.974;-2.514;2024-01-30T03:29:57;2.8833333333333333;2.0;
46381;PMS5003;66809;52.974;-2.514;2024-01-30T03:31:58;3.0;2.0833333333333335;
46381;PMS5003;66809;52.974;-2.514;2024-01-30T03:33:58;3.0166666666666666;2.0833333333333335;
46381;PMS5003;66809;52.974;-2.514;2024-01-30T03:36:02;3.0;2.0833333333333335;
46381;PMS5003;66809;52.974;-2.514;2024-01-30T03:37:58;3.066666666666667;2.1166666666666667;
46381;PMS5003;66809;52.974;-2.514;2024-01-30T03:39:58;3.066666666666667;2.0833333333333335;
46381;PMS5003;66809;52.974;-2.514;2024-01-30T03:41:57;3.05;2.066666666666667;
46381;PMS5003;66809;52.974;-2.514;2024-01-30T03:43:58;2.9833333333333334;2.0;
46381;PMS5003;66809;52.974;-2.514;2024-01-30T03:45:59;3.0166666666666666;1.9833333333333334;
46381;PMS5003;66809;52.974;-2.514;2024-01-30T03:47:58;3.05;2.0;
46381;PMS5003;66809;52.974;-2.514;2024-01-30T03:49:58;2.966666666666667;1.9166666666666667;
46381;PMS5003;66809;52.974;-2.514;2024-01-30T03:51:58;2.9166666666666665;1.8666666666666667;
46381;PMS5003;66809;52.974;-2.514;2024-01-30T03:53:58;2.95;1.9;
46381;PMS5003;66809;52.974;-2.514;2024-01-30T03:55:57;2.9;1.85;
46381;PMS5003;66809;52.974;-2.514;2024-01-30T03:57:58;2.8833333333333333;1.85;
46381;PMS5003;66809;52.974;-2.514;2024-01-30T03:59:58;2.85;1.8333333333333333;
46381;PMS5003;66809;52.974;-2.514;2024-01-30T04:01:58;2.816666666666667;1.8;
46381;PMS5003;66809;52.974;-2.514;2024-01-30T04:03:58;2.6666666666666665;1.7333333333333334;
46381;PMS5003;66809;52.974;-2.514;2024-01-30T04:05:58;2.65;1.6833333333333333;
46381;PMS5003;66809;52.974;-2.514;2024-01-30T04:07:58;2.566666666666667;1.6166666666666667;
46381;PMS5003;66809;52.974;-2.514;2024-01-30T04:09:58;2.55;1.6333333333333333;
46381;PMS5003;66809;52.974;-2.514;2024-01-30T04:11:58;2.466666666666667;1.6;
46381;PMS5003;66809;52.974;-2.514;2024-01-30T04:13:58;2.4;1.55;
46381;PMS5003;66809;52.974;-2.514;2024-01-30T04:15:59;2.283333333333333;1.4833333333333334;
46381;PMS5003;66809;52.974;-2.514;2024-01-30T04:17:58;2.283333333333333;1.45;
46381;PMS5003;66809;52.974;-2.514;2024-01-30T04:19:58;2.2333333333333334;1.4333333333333333;
46381;PMS5003;66809;52.974;-2.514;2024-01-30T04:21:57;2.183333333333333;1.4166666666666667;
46381;PMS5003;66809;52.974;-2.514;2024-01-30T04:23:58;2.1;1.4;
46381;PMS5003;66809;52.974;-2.514;2024-01-30T04:25:58;2.0166666666666666;1.3333333333333333;
46381;PMS5003;66809;52.974;-2.514;2024-01-30T04:27:58;2.0;1.3333333333333333;
46381;PMS5003;66809;52.974;-2.514;2024-01-30T04:29:58;1.9666666666666666;1.2666666666666666;
46381;PMS5003;66809;52.974;-2.514;2024-01-30T04:31:58;1.9333333333333333;1.2666666666666666;
46381;PMS5003;66809;52.974;-2.514;2024-01-30T04:33:58;1.95;1.3;
46381;PMS5003;66809;52.974;-2.514;2024-01-30T04:35:57;2.0;1.3166666666666667;
46381;PMS5003;66809;52.974;-2.514;2024-01-30T04:37:58;1.95;1.2833333333333334;
46381;PMS5003;66809;52.974;-2.514;2024-01-30T04:39:58;2.033333333333333;1.35;
46381;PMS5003;66809;52.974;-2.514;2024-01-30T04:41:58;2.1166666666666667;1.3666666666666667;
46381;PMS5003;66809;52.974;-2.514;2024-01-30T04:43:57;2.15;1.4;
46381;PMS5003;66809;52.974;-2.514;2024-01-30T04:45:58;2.1333333333333333;1.4333333333333333;
46381;PMS5003;66809;52.974;-2.514;2024-01-30T04:47:58;2.1666666666666665;1.4333333333333333;
46381;PMS5003;66809;52.974;-2.514;2024-01-30T04:49:58;2.2;1.5;
46381;PMS5003;66809;52.974;-2.514;2024-01-30T04:51:58;2.2333333333333334;1.5166666666666666;
46381;PMS5003;66809;52.974;-2.514;2024-01-30T04:53:58;2.183333333333333;1.4833333333333334;
46381;PMS5003;66809;52.974;-2.514;2024-01-30T04:55:58;2.2666666666666666;1.5333333333333334;
46381;PMS5003;66809;52.974;-2.514;2024-01-30T04:57:57;2.3666666666666667;1.5833333333333333;
46381;PMS5003;66809;52.974;-2.514;2024-01-30T05:00:03;2.3833333333333333;1.6166666666666667;
46381;PMS5003;66809;52.974;-2.514;2024-01-30T05:01:57;2.45;1.6666666666666667;
46381;PMS5003;66809;52.974;-2.514;2024-01-30T05:03:58;2.566666666666667;1.7333333333333334;
46381;PMS5003;66809;52.974;-2.514;2024-01-30T05:05:58;2.5833333333333335;1.7666666666666666;
46381;PMS5003;66809;52.974;-2.514;2024-01-30T05:07:57;2.716666666666667;1.8166666666666667;
46381;PMS5003;66809;52.974;-2.514;2024-01-30T05:09:58;2.7666666666666666;1.8833333333333333;
46381;PMS5003;66809;52.974;-2.514;2024-01-30T05:11:58;2.8666666666666667;1.9333333333333333;
46381;PMS5003;66809;52.974;-2.514;2024-01-30T05:13:57;2.933333333333333;1.9833333333333334;
46381;PMS5003;66809;52.974;-2.514;2024-01-30T05:15:58;3.0166666666666666;2.033333333333333;
46381;PMS5003;66809;52.974;-2.514;2024-01-30T05:17:58;3.1;2.1166666666666667;
46381;PMS5003;66809;52.974;-2.514;2024-01-30T05:19:58;3.2;2.15;
46381;PMS5003;66809;52.974;-2.514;2024-01-30T05:21:57;3.25;2.1666666666666665;
46381;PMS5003;66809;52.974;-2.514;2024-01-30T05:23:58;3.216666666666667;2.1;
46381;PMS5003;66809;52.974;-2.514;2024-01-30T05:25:58;3.283333333333333;2.1333333333333333;
46381;PMS5003;66809;52.974;-2.514;2024-01-30T05:27:58;3.3;2.1333333333333333;
46381;PMS5003;66809;52.974;-2.514;2024-01-30T05:29:58;3.316666666666667;2.1333333333333333;
46381;PMS5003;66809;52.974;-2.514;2024-01-30T05:31:57;3.283333333333333;2.1;
46381;PMS5003;66809;52.974;-2.514;2024-01-30T05:33:58;3.2666666666666666;2.066666666666667;
46381;PMS5003;66809;52.974;-2.514;2024-01-30T05:35:58;3.25;2.0833333333333335;
46381;PMS5003;66809;52.974;-2.514;2024-01-30T05:37:58;3.3333333333333335;2.1;
46381;PMS5003;66809;52.974;-2.514;2024-01-30T05:39:57;3.25;2.033333333333333;
46381;PMS5003;66809;52.974;-2.514;2024-01-30T05:41:58;3.15;2.0166666666666666;
46381;PMS5003;66809;52.974;-2.514;2024-01-30T05:43:58;3.183333333333333;2.0;
46381;PMS5003;66809;52.974;-2.514;2024-01-30T05:45:58;3.1666666666666665;1.9833333333333334;
46381;PMS5003;66809;52.974;-2.514;2024-01-30T05:47:58;3.216666666666667;2.0166666666666666;
46381;PMS5003;66809;52.974;-2.514;2024-01-30T05:49:58;3.2;2.0;
46381;PMS5003;66809;52.974;-2.514;2024-01-30T05:51:58;3.216666666666667;2.033333333333333;
46381;PMS5003;66809;52.974;-2.514;2024-01-30T05:53:58;3.283333333333333;2.066666666666667;
46381;PMS5003;66809;52.974;-2.514;2024-01-30T05:55:59;3.283333333333333;2.066666666666667;
46381;PMS5003;66809;52.974;-2.514;2024-01-30T05:57:58;3.25;2.1;
46381;PMS5003;66809;52.974;-2.514;2024-01-30T05:59:58;3.25;2.066666666666667;
46381;PMS5003;66809;52.974;-2.514;2024-01-30T06:01:57;3.25;2.066666666666667;
46381;PMS5003;66809;52.974;-2.514;2024-01-30T06:03:58;3.3;2.05;
46381;PMS5003;66809;52.974;-2.514;2024-01-30T06:05:58;3.4166666666666665;2.1;
46381;PMS5003;66809;52.974;-2.514;2024-01-30T06:07:57;3.316666666666667;2.0833333333333335;
46381;PMS5003;66809;52.974;-2.514;2024-01-30T06:09:58;3.316666666666667;2.05;
46381;PMS5003;66809;52.974;-2.514;2024-01-30T06:11:58;3.316666666666667;2.05;
46381;PMS5003;66809;52.974;-2.514;2024-01-30T06:13:57;3.4;2.05;
46381;PMS5003;66809;52.974;-2.514;2024-01-30T06:15:58;3.466666666666667;2.1;
46381;PMS5003;66809;52.974;-2.514;2024-01-30T06:17:58;3.4;2.066666666666667;
46381;PMS5003;66809;52.974;-2.514;2024-01-30T06:19:58;3.3833333333333333;2.1333333333333333;
46381;PMS5003;66809;52.974;-2.514;2024-01-30T06:21:58;3.4;2.15;
46381;PMS5003;66809;52.974;-2.514;2024-01-30T06:23:58;3.4;2.2;
46381;PMS5003;66809;52.974;-2.514;2024-01-30T06:25:58;3.433333333333333;2.25;
46381;PMS5003;66809;52.974;-2.514;2024-01-30T06:27:58;3.466666666666667;2.3;
46381;PMS5003;66809;52.974;-2.514;2024-01-30T06:29:57;3.4833333333333334;2.35;
46381;PMS5003;66809;52.974;-2.514;2024-01-30T06:31:59;3.6166666666666667;2.433333333333333;
46381;PMS5003;66809;52.974;-2.514;2024-01-30T06:33:57;3.716666666666667;2.466666666666667;
46381;PMS5003;66809;52.974;-2.514;2024-01-30T06:35:58;3.8;2.533333333333333;
46381;PMS5003;66809;52.974;-2.514;2024-01-30T06:37:58;3.816666666666667;2.5833333333333335;
46381;PMS5003;66809;52.974;-2.514;2024-01-30T06:39:57;3.9833333333333334;2.7333333333333334;
46381;PMS5003;66809;52.974;-2.514;2024-01-30T06:41:58;3.9833333333333334;2.75;
46381;PMS5003;66809;52.974;-2.514;2024-01-30T06:43:58;4.016666666666667;2.7666666666666666;
46381;PMS5003;66809;52.974;-2.514;2024-01-30T06:45:58;4.05;2.783333333333333;
46381;PMS5003;66809;52.974;-2.514;2024-01-30T06:47:57;4.05;2.85;
46381;PMS5003;66809;52.974;-2.514;2024-01-30T06:49:57;4.083333333333333;2.9;
46381;PMS5003;66809;52.974;-2.514;2024-01-30T06:51:58;4.1;2.9;
46381;PMS5003;66809;52.974;-2.514;2024-01-30T06:53:58;4.15;2.95;
46381;PMS5003;66809;52.974;-2.514;2024-01-30T06:55:58;4.183333333333334;2.95;
46381;PMS5003;66809;52.974;-2.514;2024-01-30T06:57:58;4.15;2.9;
46381;PMS5003;66809;52.974;-2.514;2024-01-30T06:59:58;4.216666666666667;2.966666666666667;
46381;PMS5003;66809;52.974;-2.514;2024-01-30T07:01:58;4.233333333333333;2.95;
46381;PMS5003;66809;52.974;-2.514;2024-01-30T07:03:58;4.1;2.9;
46381;PMS5003;66809;52.974;-2.514;2024-01-30T07:05:58;3.95;2.8333333333333335;
46381;PMS5003;66809;52.974;-2.514;2024-01-30T07:07:58;3.933333333333333;2.816666666666667;
46381;PMS5003;66809;52.974;-2.514;2024-01-30T07:09:57;3.8333333333333335;2.75;
46381;PMS5003;66809;52.974;-2.514;2024-01-30T07:11:58;3.8666666666666667;2.7333333333333334;
46381;PMS5003;66809;52.974;-2.514;2024-01-30T07:13:58;3.783333333333333;2.716666666666667;
46381;PMS5003;66809;52.974;-2.514;2024-01-30T07:15:58;3.683333333333333;2.65;
46381;PMS5003;66809;52.974;-2.514;2024-01-30T07:17:58;3.7;2.65;
46381;PMS5003;66809;52.974;-2.514;2024-01-30T07:19:57;3.65;2.566666666666667;
46381;PMS5003;66809;52.974;-2.514;2024-01-30T07:21:58;3.6166666666666667;2.533333333333333;
46381;PMS5003;66809;52.974;-2.514;2024-01-30T07:23:58;3.65;2.55;
46381;PMS5003;66809;52.974;-2.514;2024-01-30T07:25:58;3.5833333333333335;2.533333333333333;
46381;PMS5003;66809;52.974;-2.514;2024-01-30T07:27:58;3.533333333333333;2.5;
46381;PMS5003;66809;52.974;-2.514;2024-01-30T07:29:58;3.55;2.433333333333333;
46381;PMS5003;66809;52.974;-2.514;2024-01-30T07:31:58;3.5;2.433333333333333;
46381;PMS5003;66809;52.974;-2.514;2024-01-30T07:33:58;3.4166666666666665;2.433333333333333;
46381;PMS5003;66809;52.974;-2.514;2024-01-30T07:35:58;3.3;2.3333333333333335;
46381;PMS5003;66809;52.974;-2.514;2024-01-30T07:37:57;3.283333333333333;2.283333333333333;
46381;PMS5003;66809;52.974;-2.514;2024-01-30T07:39:58;3.183333333333333;2.1666666666666665;
46381;PMS5003;66809;52.974;-2.514;2024-01-30T07:41:58;3.25;2.15;
46381;PMS5003;66809;52.974;-2.514;2024-01-30T07:43:57;3.216666666666667;2.1333333333333333;
46381;PMS5003;66809;52.974;-2.514;2024-01-30T07:45:58;3.2333333333333334;2.1166666666666667;
46381;PMS5003;66809;52.974;-2.514;2024-01-30T07:48:03;3.1333333333333333;2.0;
46381;PMS5003;66809;52.974;-2.514;2024-01-30T07:49:58;3.0833333333333335;1.9166666666666667;
46381;PMS5003;66809;52.974;-2.514;2024-01-30T07:51:58;3.1;1.9333333333333333;
46381;PMS5003;66809;52.974;-2.514;2024-01-30T07:53:58;3.0;1.8666666666666667;
46381;PMS5003;66809;52.974;-2.514;2024-01-30T07:55:58;2.8833333333333333;1.8166666666666667;
46381;PMS5003;66809;52.974;-2.514;2024-01-30T07:57:58;2.8666666666666667;1.7833333333333334;
46381;PMS5003;66809;52.974;-2.514;2024-01-30T07:59:58;2.7666666666666666;1.7166666666666666;
46381;PMS5003;66809;52.974;-2.514;2024-01-30T08:01:58;2.8;1.7833333333333334;
46381;PMS5003;66809;52.974;-2.514;2024-01-30T08:03:57;2.816666666666667;1.7833333333333334;
46381;PMS5003;66809;52.974;-2.514;2024-01-30T08:05:58;2.8333333333333335;1.7833333333333334;
46381;PMS5003;66809;52.974;-2.514;2024-01-30T08:07:58;2.9166666666666665;1.7833333333333334;
46381;PMS5003;66809;52.974;-2.514;2024-01-30T08:09:57;2.95;1.8166666666666667;
46381;PMS5003;66809;52.974;-2.514;2024-01-30T08:11:58;2.8;1.7833333333333334;
46381;PMS5003;66809;52.974;-2.514;2024-01-30T08:13:58;2.7333333333333334;1.7333333333333334;
46381;PMS5003;66809;52.974;-2.514;2024-01-30T08:15:57;2.7333333333333334;1.7166666666666666;
46381;PMS5003;66809;52.974;-2.514;2024-01-30T08:17:58;2.65;1.65;
46381;PMS5003;66809;52.974;-2.514;2024-01-30T08:19:58;2.6;1.6166666666666667;
46381;PMS5003;66809;52.974;-2.514;2024-01-30T08:21:58;2.65;1.6333333333333333;
46381;PMS5003;66809;52.974;-2.514;2024-01-30T08:23:58;2.7;1.65;
46381;PMS5003;66809;52.974;-2.514;2024-01-30T08:25:58;2.6666666666666665;1.5666666666666667;
46381;PMS5003;66809;52.974;-2.514;2024-01-30T08:27:58;2.6333333333333333;1.5833333333333333;
46381;PMS5003;66809;52.974;-2.514;2024-01-30T08:29:57;2.5833333333333335;1.6166666666666667;
46381;PMS5003;66809;52.974;-2.514;2024-01-30T08:31:57;2.466666666666667;1.4833333333333334;
46381;PMS5003;66809;52.974;-2.514;2024-01-30T08:33:58;2.4833333333333334;1.4333333333333333;
46381;PMS5003;66809;52.974;-2.514;2024-01-30T08:35:58;2.566666666666667;1.4666666666666666;
46381;PMS5003;66809;52.974;-2.514;2024-01-30T08:37:58;2.5;1.4833333333333334;
46381;PMS5003;66809;52.974;-2.514;2024-01-30T08:39:57;2.5166666666666666;1.5;
46381;PMS5003;66809;52.974;-2.514;2024-01-30T08:41:58;2.5;1.55;
46381;PMS5003;66809;52.974;-2.514;2024-01-30T08:43:58;2.45;1.5333333333333334;
46381;PMS5003;66809;52.974;-2.514;2024-01-30T08:45:58;2.4166666666666665;1.5166666666666666;
46381;PMS5003;66809;52.974;-2.514;2024-01-30T08:47:58;2.45;1.55;
46381;PMS5003;66809;52.974;-2.514;2024-01-30T08:49:58;2.45;1.5333333333333334;
46381;PMS5003;66809;52.974;-2.514;2024-01-30T08:51:58;2.3833333333333333;1.4833333333333334;
46381;PMS5003;66809;52.974;-2.514;2024-01-30T08:53:58;2.3833333333333333;1.4833333333333334;
46381;PMS5003;66809;52.974;-2.514;2024-01-30T08:55:57;2.4166666666666665;1.4833333333333334;
46381;PMS5003;66809;52.974;-2.514;2024-01-30T08:57:58;2.3666666666666667;1.4666666666666666;
46381;PMS5003;66809;52.974;-2.514;2024-01-30T08:59:58;2.3333333333333335;1.45;
46381;PMS5003;66809;52.974;-2.514;2024-01-30T09:01:58;2.183333333333333;1.35;
46381;PMS5003;66809;52.974;-2.514;2024-01-30T09:03:58;2.183333333333333;1.3333333333333333;
46381;PMS5003;66809;52.974;-2.514;2024-01-30T09:05:58;2.1666666666666665;1.3333333333333333;
46381;PMS5003;66809;52.974;-2.514;2024-01-30T09:07:58;2.1666666666666665;1.35;
46381;PMS5003;66809;52.974;-2.514;2024-01-30T09:09:57;2.1;1.3;
46381;PMS5003;66809;52.974;-2.514;2024-01-30T09:11:58;2.15;1.2833333333333334;
46381;PMS5003;66809;52.974;-2.514;2024-01-30T09:13:58;2.2;1.3;
46381;PMS5003;66809;52.974;-2.514;2024-01-30T09:15:57;2.2;1.3;
46381;PMS5003;66809;52.974;-2.514;2024-01-30T09:17:58;2.3333333333333335;1.3833333333333333;
46381;PMS5003;66809;52.974;-2.514;2024-01-30T09:19:58;2.3666666666666667;1.4;
46381;PMS5003;66809;52.974;-2.514;2024-01-30T09:21:58;2.316666666666667;1.3833333333333333;
46381;PMS5003;66809;52.974;-2.514;2024-01-30T09:24:01;2.25;1.3333333333333333;
46381;PMS5003;66809;52.974;-2.514;2024-01-30T09:25:57;2.316666666666667;1.4;
46381;PMS5003;66809;52.974;-2.514;2024-01-30T09:27:58;2.283333333333333;1.3833333333333333;
46381;PMS5003;66809;52.974;-2.514;2024-01-30T09:29:58;2.216666666666667;1.3333333333333333;
46381;PMS5003;66809;52.974;-2.514;2024-01-30T09:31:58;2.2333333333333334;1.35;
46381;PMS5003;66809;52.974;-2.514;2024-01-30T09:33:57;2.183333333333333;1.35;
46381;PMS5003;66809;52.974;-2.514;2024-01-30T09:35:58;2.033333333333333;1.2666666666666666;
46381;PMS5003;66809;52.974;-2.514;2024-01-30T09:37:58;2.033333333333333;1.2333333333333334;